createdAt,value
2018-01-27T00:02:18.126Z,7.88
2018-01-27T00:04:47.272Z,7.84
2018-01-27T00:07:16.378Z,7.80
2018-01-27T00:09:46.239Z,7.70
2018-01-27T00:12:16.127Z,7.65
2018-01-27T00:14:45.243Z,7.61
2018-01-27T00:17:14.356Z,7.60
2018-01-27T00:19:43.478Z,7.57
2018-01-27T00:22:14.418Z,7.52
2018-01-27T00:24:43.542Z,7.51
2018-01-27T00:27:13.420Z,7.54
2018-01-27T00:29:42.562Z,7.54
2018-01-27T00:32:11.674Z,7.57
2018-01-27T00:34:41.554Z,7.55
2018-01-27T00:37:10.650Z,7.61
2018-01-27T00:39:39.771Z,7.63
2018-01-27T00:42:08.877Z,7.55
2018-01-27T00:44:38.053Z,7.51
2018-01-27T00:47:07.947Z,7.51
2018-01-27T00:49:37.042Z,7.82
2018-01-27T00:52:06.160Z,7.94
2018-01-27T00:54:35.257Z,8.07
2018-01-27T00:57:04.407Z,8.04
2018-01-27T00:59:33.503Z,8.22
2018-01-27T01:02:02.648Z,8.03
2018-01-27T01:04:31.733Z,7.95
2018-01-27T01:07:01.610Z,8.03
2018-01-27T01:09:30.734Z,8.03
2018-01-27T01:12:00.617Z,7.96
2018-01-27T01:14:29.710Z,7.85
2018-01-27T01:16:59.602Z,8.02
2018-01-27T01:19:29.491Z,7.87
2018-01-27T01:21:58.603Z,7.79
2018-01-27T01:24:27.723Z,8.11
2018-01-27T01:26:57.624Z,8.18
2018-01-27T01:29:27.463Z,8.15
2018-01-27T01:31:56.575Z,8.30
2018-01-27T01:34:25.674Z,8.33
2018-01-27T01:36:54.786Z,8.34
2018-01-27T01:39:23.885Z,8.27
2018-01-27T01:41:52.993Z,8.14
2018-01-27T01:44:27.472Z,7.96
2018-01-27T01:46:56.557Z,7.83
2018-01-27T01:49:25.646Z,7.77
2018-01-27T01:51:54.761Z,7.71
2018-01-27T01:54:23.851Z,7.62
2018-01-27T01:56:53.729Z,7.57
2018-01-27T01:59:22.821Z,7.60
2018-01-27T02:01:51.937Z,7.59
2018-01-27T02:04:21.053Z,7.57
2018-01-27T02:06:50.176Z,7.52
2018-01-27T02:09:19.269Z,7.54
2018-01-27T02:11:48.371Z,7.55
2018-01-27T02:14:17.505Z,7.58
2018-01-27T02:16:46.619Z,7.62
2018-01-27T02:19:15.758Z,7.68
2018-01-27T02:21:44.870Z,7.65
2018-01-27T02:24:13.991Z,7.71
2018-01-27T02:26:43.083Z,7.75
2018-01-27T02:29:12.194Z,7.73
2018-01-27T02:31:41.305Z,7.73
2018-01-27T02:34:10.396Z,7.67
2018-01-27T02:36:40.285Z,7.69
2018-01-27T02:39:09.418Z,7.64
2018-01-27T02:41:38.545Z,7.61
2018-01-27T02:44:09.233Z,7.67
2018-01-27T02:46:38.352Z,7.67
2018-01-27T02:49:07.433Z,7.66
2018-01-27T02:51:36.585Z,7.60
2018-01-27T02:54:05.724Z,7.54
2018-01-27T02:56:34.837Z,7.54
2018-01-27T02:59:04.725Z,7.53
2018-01-27T03:01:33.816Z,7.37
2018-01-27T03:04:02.938Z,7.39
2018-01-27T03:06:32.023Z,7.40
2018-01-27T03:09:01.922Z,7.37
2018-01-27T03:11:31.026Z,7.29
2018-01-27T03:14:00.921Z,7.26
2018-01-27T03:16:30.018Z,7.26
2018-01-27T03:18:59.118Z,7.29
2018-01-27T03:21:28.213Z,7.33
2018-01-27T03:23:57.311Z,7.26
2018-01-27T03:26:26.423Z,7.29
2018-01-27T03:28:55.532Z,7.35
2018-01-27T03:31:24.640Z,7.34
2018-01-27T03:33:53.738Z,7.32
2018-01-27T03:36:22.854Z,7.38
2018-01-27T03:38:51.959Z,7.43
2018-01-27T03:41:21.074Z,7.42
2018-01-27T03:43:50.225Z,7.51
2018-01-27T03:46:19.370Z,7.52
2018-01-27T03:48:48.495Z,7.54
2018-01-27T03:51:17.578Z,7.55
2018-01-27T03:53:47.460Z,7.61
2018-01-27T03:56:16.589Z,7.82
2018-01-27T03:58:45.710Z,7.77
2018-01-27T04:01:14.797Z,7.73
2018-01-27T04:03:44.674Z,7.67
2018-01-27T04:06:13.790Z,7.63
2018-01-27T04:08:42.896Z,7.61
2018-01-27T04:11:12.013Z,7.65
2018-01-27T04:13:41.099Z,7.69
2018-01-27T04:16:10.205Z,7.70
2018-01-27T04:18:39.324Z,7.80
2018-01-27T04:21:08.401Z,7.70
2018-01-27T04:23:38.280Z,7.67
2018-01-27T04:26:07.373Z,7.68
2018-01-27T04:28:36.479Z,7.64
2018-01-27T04:31:05.571Z,7.64
2018-01-27T04:33:35.474Z,7.65
2018-01-27T04:36:04.592Z,7.64
2018-01-27T04:38:33.685Z,7.66
2018-01-27T04:41:02.791Z,7.72
2018-01-27T04:43:31.882Z,7.78
2018-01-27T04:46:01.002Z,7.79
2018-01-27T04:48:30.116Z,7.76
2018-01-27T04:50:59.214Z,7.78
2018-01-27T04:53:28.349Z,7.75
2018-01-27T04:55:58.838Z,7.75
2018-01-27T04:58:27.942Z,7.78
2018-01-27T05:00:57.054Z,7.89
2018-01-27T05:03:26.167Z,7.90
2018-01-27T05:05:55.267Z,7.90
2018-01-27T05:08:24.368Z,7.86
2018-01-27T05:13:16.105Z,7.87
2018-01-27T05:15:45.986Z,7.86
2018-01-27T05:18:15.100Z,7.82
2018-01-27T05:20:44.193Z,7.84
2018-01-27T05:23:13.289Z,7.99
2018-01-27T05:25:42.388Z,7.97
2018-01-27T05:28:11.491Z,7.94
2018-01-27T05:30:40.585Z,7.94
2018-01-27T05:33:10.458Z,7.92
2018-01-27T05:35:39.577Z,7.90
2018-01-27T05:38:08.679Z,8.14
2018-01-27T05:40:37.775Z,8.06
2018-01-27T05:43:06.910Z,8.06
2018-01-27T05:45:35.995Z,8.25
2018-01-27T05:48:05.105Z,8.20
2018-01-27T05:50:34.198Z,8.09
2018-01-27T05:53:03.310Z,8.06
2018-01-27T05:55:32.479Z,7.98
2018-01-27T05:58:01.602Z,7.87
2018-01-27T06:00:31.460Z,7.78
2018-01-27T06:03:00.585Z,7.89
2018-01-27T06:05:29.678Z,7.87
2018-01-27T06:07:58.805Z,7.82
2018-01-27T06:10:27.923Z,7.80
2018-01-27T06:12:57.032Z,7.71
2018-01-27T06:15:26.138Z,7.74
2018-01-27T06:17:55.225Z,7.78
2018-01-27T06:20:24.318Z,7.63
2018-01-27T06:22:53.438Z,7.49
2018-01-27T06:25:22.558Z,7.50
2018-01-27T06:27:51.662Z,7.58
2018-01-27T06:30:20.765Z,7.56
2018-01-27T06:32:49.926Z,7.52
2018-01-27T06:35:19.067Z,7.48
2018-01-27T06:37:48.910Z,7.46
2018-01-27T06:40:18.034Z,7.45
2018-01-27T06:42:47.130Z,7.38
2018-01-27T06:45:16.217Z,7.30
2018-01-27T06:47:45.341Z,7.35
2018-01-27T06:50:14.442Z,7.30
2018-01-27T06:52:43.566Z,7.27
2018-01-27T06:55:12.664Z,7.42
2018-01-27T06:57:42.381Z,7.49
2018-01-27T07:00:11.527Z,7.48
2018-01-27T07:02:40.601Z,7.47
2018-01-27T07:05:09.721Z,7.52
2018-01-27T07:07:38.830Z,7.51
2018-01-27T07:10:07.947Z,7.46
2018-01-27T07:12:37.062Z,7.44
2018-01-27T07:15:06.177Z,7.39
2018-01-27T07:17:35.316Z,7.38
2018-01-27T07:20:05.217Z,7.46
2018-01-27T07:22:34.303Z,7.46
2018-01-27T07:25:03.427Z,7.52
2018-01-27T07:27:32.526Z,7.53
2018-01-27T07:30:01.648Z,7.65
2018-01-27T07:32:30.754Z,7.71
2018-01-27T07:35:00.617Z,7.80
2018-01-27T07:37:30.515Z,7.84
2018-01-27T07:39:59.620Z,7.97
2018-01-27T07:42:29.668Z,7.97
2018-01-27T07:44:58.785Z,7.86
2018-01-27T07:47:27.902Z,7.75
2018-01-27T07:49:57.782Z,7.68
2018-01-27T07:52:26.897Z,7.57
2018-01-27T07:54:56.019Z,7.62
2018-01-27T07:57:25.144Z,7.82
2018-01-27T07:59:55.007Z,7.81
2018-01-27T08:02:24.124Z,7.84
2018-01-27T08:04:54.036Z,7.75
2018-01-27T08:07:23.144Z,7.74
2018-01-27T08:09:52.271Z,7.72
2018-01-27T08:12:21.377Z,7.73
2018-01-27T08:14:50.514Z,7.85
2018-01-27T08:17:19.612Z,7.84
2018-01-27T08:19:48.730Z,7.88
2018-01-27T08:22:17.854Z,7.76
2018-01-27T08:24:46.983Z,7.78
2018-01-27T08:27:16.096Z,7.83
2018-01-27T08:29:45.977Z,7.98
2018-01-27T08:32:15.095Z,8.00
2018-01-27T08:34:44.223Z,8.12
2018-01-27T08:37:13.342Z,8.04
2018-01-27T08:39:43.267Z,8.04
2018-01-27T08:42:12.410Z,8.07
2018-01-27T08:44:41.568Z,8.08
2018-01-27T08:47:10.704Z,7.93
2018-01-27T08:49:40.588Z,7.97
2018-01-27T08:52:09.698Z,7.95
2018-01-27T08:54:38.875Z,8.00
2018-01-27T08:57:07.968Z,7.89
2018-01-27T08:59:37.848Z,8.01
2018-01-27T09:02:07.021Z,8.10
2018-01-27T09:04:36.134Z,8.22
2018-01-27T09:07:05.282Z,8.20
2018-01-27T09:09:34.400Z,8.34
2018-01-27T09:12:03.510Z,8.42
2018-01-27T09:14:32.609Z,8.24
2018-01-27T09:17:01.732Z,8.08
2018-01-27T09:19:30.836Z,7.99
2018-01-27T09:21:59.922Z,7.97
2018-01-27T09:24:29.071Z,7.93
2018-01-27T09:26:58.209Z,8.05
2018-01-27T09:29:27.315Z,8.00
2018-01-27T09:31:56.419Z,7.90
2018-01-27T09:34:25.563Z,7.78
2018-01-27T09:36:55.453Z,7.80
2018-01-27T09:39:24.570Z,7.69
2018-01-27T09:41:53.681Z,7.69
2018-01-27T09:44:22.802Z,7.72
2018-01-27T09:46:51.900Z,7.69
2018-01-27T09:49:21.031Z,7.58
2018-01-27T09:51:50.123Z,7.76
2018-01-27T09:54:19.237Z,7.80
2018-01-27T09:56:48.336Z,7.79
2018-01-27T09:59:17.425Z,7.80
2018-01-27T10:01:46.543Z,7.92
2018-01-27T10:04:15.638Z,7.86
2018-01-27T10:06:44.775Z,7.78
2018-01-27T10:09:13.878Z,7.79
2018-01-27T10:11:43.017Z,7.78
2018-01-27T10:14:12.113Z,7.69
2018-01-27T10:16:41.214Z,7.72
2018-01-27T10:19:10.346Z,7.83
2018-01-27T10:21:39.453Z,7.97
2018-01-27T10:24:08.583Z,8.09
2018-01-27T10:26:37.709Z,7.98
2018-01-27T10:29:07.611Z,8.11
2018-01-27T10:31:36.756Z,8.35
2018-01-27T10:34:06.645Z,8.17
2018-01-27T10:36:35.748Z,8.21
2018-01-27T10:39:04.890Z,8.30
2018-01-27T10:41:34.770Z,8.13
2018-01-27T10:44:03.869Z,8.05
2018-01-27T10:46:33.005Z,8.00
2018-01-27T10:49:02.134Z,8.09
2018-01-27T10:51:31.255Z,8.16
2018-01-27T10:54:00.381Z,8.02
2018-01-27T10:56:29.492Z,7.97
2018-01-27T10:58:59.425Z,7.95
2018-01-27T11:01:28.542Z,8.07
2018-01-27T11:03:57.675Z,8.14
2018-01-27T11:06:27.578Z,8.18
2018-01-27T11:08:57.438Z,8.25
2018-01-27T11:11:26.595Z,8.15
2018-01-27T11:13:56.489Z,8.31
2018-01-27T11:16:35.518Z,8.40
2018-01-27T11:19:04.625Z,8.43
2018-01-27T11:21:33.771Z,8.29
2018-01-27T11:24:03.790Z,8.19
2018-01-27T11:26:33.672Z,8.11
2018-01-27T11:29:02.847Z,8.13
2018-01-27T11:31:32.705Z,8.25
2018-01-27T11:34:01.813Z,8.24
2018-01-27T11:36:30.906Z,8.22
2018-01-27T11:39:00.051Z,8.33
2018-01-27T11:41:29.192Z,8.41
2018-01-27T11:43:59.084Z,8.33
2018-01-27T11:46:28.189Z,8.32
2018-01-27T11:48:57.278Z,8.31
2018-01-27T11:51:26.419Z,8.54
2018-01-27T11:53:55.546Z,8.59
2018-01-27T11:56:24.633Z,8.38
2018-01-27T11:58:53.773Z,8.29
2018-01-27T12:01:23.638Z,8.37
2018-01-27T12:03:52.759Z,8.33
2018-01-27T12:06:21.855Z,8.34
2018-01-27T12:08:50.958Z,8.30
2018-01-27T12:11:20.880Z,8.26
2018-01-27T12:13:49.999Z,8.18
2018-01-27T12:16:19.112Z,8.38
2018-01-27T12:18:48.213Z,8.30
2018-01-27T12:21:17.359Z,8.25
2018-01-27T12:23:46.478Z,8.33
2018-01-27T12:26:15.602Z,8.35
2018-01-27T12:28:45.464Z,8.41
2018-01-27T12:31:14.626Z,8.44
2018-01-27T12:33:44.507Z,8.52
2018-01-27T12:36:13.663Z,8.48
2018-01-27T12:38:42.761Z,8.47
2018-01-27T12:41:11.885Z,8.46
2018-01-27T12:43:41.055Z,8.48
2018-01-27T12:48:42.242Z,8.69
2018-01-27T12:51:11.345Z,8.58
2018-01-27T12:53:40.472Z,8.61
2018-01-27T12:56:09.568Z,8.71
2018-01-27T12:58:38.703Z,8.82
2018-01-27T13:01:07.805Z,8.87
2018-01-27T13:03:36.938Z,8.82
2018-01-27T13:06:06.044Z,8.52
2018-01-27T13:08:35.160Z,8.62
2018-01-27T13:11:05.062Z,8.58
2018-01-27T13:13:34.182Z,8.49
2018-01-27T13:16:03.328Z,8.37
2018-01-27T13:18:32.437Z,8.34
2018-01-27T13:21:01.543Z,8.33
2018-01-27T13:23:30.625Z,8.45
2018-01-27T13:26:00.517Z,8.58
2018-01-27T13:28:29.619Z,8.55
2018-01-27T13:30:58.742Z,8.54
2018-01-27T13:33:27.863Z,8.57
2018-01-27T13:35:57.194Z,8.45
2018-01-27T13:38:26.304Z,8.60
2018-01-27T13:40:55.424Z,8.62
2018-01-27T13:43:25.294Z,8.48
2018-01-27T13:45:54.430Z,8.28
2018-01-27T13:48:23.534Z,8.29
2018-01-27T13:50:52.646Z,8.37
2018-01-27T13:53:21.781Z,8.35
2018-01-27T13:55:50.925Z,8.38
2018-01-27T13:58:20.061Z,8.47
2018-01-27T14:00:49.172Z,8.74
2018-01-27T14:03:18.289Z,8.55
2018-01-27T14:05:47.398Z,8.47
2018-01-27T14:08:16.557Z,8.18
2018-01-27T14:10:46.397Z,8.24
2018-01-27T14:13:15.545Z,8.15
2018-01-27T14:15:44.659Z,8.21
2018-01-27T14:18:13.791Z,8.30
2018-01-27T14:20:44.424Z,8.22
2018-01-27T14:23:13.556Z,8.32
2018-01-27T14:25:43.432Z,8.44
2018-01-27T14:28:12.568Z,8.51
2018-01-27T14:30:41.718Z,8.49
2018-01-27T14:33:11.653Z,8.59
2018-01-27T14:35:40.774Z,8.39
2018-01-27T14:38:09.885Z,8.44
2018-01-27T14:40:39.015Z,8.62
2018-01-27T14:43:08.188Z,8.56
2018-01-27T14:45:38.073Z,8.49
2018-01-27T14:48:07.200Z,8.47
2018-01-27T14:50:36.312Z,8.54
2018-01-27T14:53:06.199Z,8.38
2018-01-27T14:55:35.288Z,8.30
2018-01-27T14:58:04.435Z,8.16
2018-01-27T15:00:33.540Z,8.28
2018-01-27T15:03:02.706Z,8.29
2018-01-27T15:05:31.825Z,8.22
2018-01-27T15:08:00.941Z,8.30
2018-01-27T15:10:30.054Z,8.37
2018-01-27T15:12:59.162Z,8.16
2018-01-27T15:15:28.258Z,8.10
2018-01-27T15:17:57.401Z,8.21
2018-01-27T15:20:26.608Z,8.28
2018-01-27T15:22:55.680Z,8.47
2018-01-27T15:25:24.797Z,8.56
2018-01-27T15:27:53.914Z,8.58
2018-01-27T15:30:23.043Z,8.57
2018-01-27T15:32:52.178Z,8.49
2018-01-27T15:35:21.283Z,8.46
2018-01-27T15:37:50.413Z,8.37
2018-01-27T15:40:19.529Z,8.31
2018-01-27T15:42:49.429Z,8.16
2018-01-27T15:45:18.524Z,8.14
2018-01-27T15:47:47.662Z,8.14
2018-01-27T15:50:17.537Z,8.09
2018-01-27T15:52:46.679Z,8.02
2018-01-27T15:55:16.558Z,8.02
2018-01-27T15:57:45.675Z,7.97
2018-01-27T16:00:14.791Z,7.91
2018-01-27T16:02:43.886Z,7.89
2018-01-27T16:05:13.013Z,7.86
2018-01-27T16:07:42.894Z,7.84
2018-01-27T16:10:12.019Z,7.91
2018-01-27T16:12:41.152Z,7.89
2018-01-27T16:15:10.275Z,7.97
2018-01-27T16:17:39.365Z,7.91
2018-01-27T16:20:08.499Z,7.93
2018-01-27T16:22:37.602Z,7.86
2018-01-27T16:25:06.703Z,7.87
2018-01-27T16:27:35.847Z,7.88
2018-01-27T16:30:04.961Z,7.90
2018-01-27T16:32:34.064Z,8.02
2018-01-27T16:35:03.174Z,8.24
2018-01-27T16:37:32.292Z,8.20
2018-01-27T16:40:01.431Z,8.05
2018-01-27T16:42:30.578Z,7.97
2018-01-27T16:44:59.720Z,7.91
2018-01-27T16:47:28.846Z,7.86
2018-01-27T16:49:58.707Z,7.91
2018-01-27T16:52:27.841Z,7.88
2018-01-27T16:54:56.956Z,7.82
2018-01-27T16:57:26.074Z,7.83
2018-01-27T16:59:55.192Z,7.97
2018-01-27T17:02:25.087Z,8.13
2018-01-27T17:04:54.233Z,8.08
2018-01-27T17:07:23.350Z,8.20
2018-01-27T17:09:52.508Z,8.19
2018-01-27T17:12:21.618Z,8.40
2018-01-27T17:14:50.768Z,8.37
2018-01-27T17:17:19.885Z,8.28
2018-01-27T17:19:49.782Z,8.30
2018-01-27T17:22:18.886Z,8.31
2018-01-27T17:24:48.038Z,8.18
2018-01-27T17:27:17.904Z,8.12
2018-01-27T17:29:47.039Z,8.05
2018-01-27T17:32:16.166Z,8.00
2018-01-27T17:34:45.289Z,8.02
2018-01-27T17:37:14.430Z,8.03
2018-01-27T17:39:43.568Z,8.07
2018-01-27T17:42:12.669Z,7.99
2018-01-27T17:44:41.794Z,7.98
2018-01-27T17:47:10.920Z,7.78
2018-01-27T17:49:40.812Z,7.75
2018-01-27T17:52:10.698Z,7.79
2018-01-27T17:54:39.803Z,7.82
2018-01-27T17:57:08.924Z,7.68
2018-01-27T17:59:38.041Z,7.91
2018-01-27T18:02:07.179Z,7.88
2018-01-27T18:04:36.292Z,7.88
2018-01-27T18:07:05.421Z,7.81
2018-01-27T18:09:35.326Z,7.79
2018-01-27T18:12:04.448Z,7.73
2018-01-27T18:14:33.581Z,7.80
2018-01-27T18:17:03.457Z,7.82
2018-01-27T18:19:32.565Z,7.66
2018-01-27T18:22:01.711Z,7.85
2018-01-27T18:24:30.882Z,7.98
2018-01-27T18:27:00.030Z,8.01
2018-01-27T18:29:29.158Z,7.88
2018-01-27T18:31:59.048Z,7.70
2018-01-27T18:34:28.145Z,7.52
2018-01-27T18:36:57.299Z,7.42
2018-01-27T18:39:27.213Z,7.45
2018-01-27T18:41:56.326Z,7.58
2018-01-27T18:44:25.426Z,7.75
2018-01-27T18:46:54.577Z,7.69
2018-01-27T18:49:23.679Z,7.58
2018-01-27T18:51:52.809Z,7.66
2018-01-27T18:54:21.926Z,7.68
2018-01-27T18:56:51.063Z,7.59
2018-01-27T18:59:20.168Z,7.48
2018-01-27T19:01:49.320Z,7.47
2018-01-27T19:04:18.437Z,7.49
2018-01-27T19:06:47.546Z,7.61
2018-01-27T19:09:16.669Z,7.81
2018-01-27T19:11:45.748Z,7.71
2018-01-27T19:14:14.874Z,7.78
2018-01-27T19:16:43.975Z,7.75
2018-01-27T19:19:13.884Z,7.69
2018-01-27T19:21:43.744Z,7.76
2018-01-27T19:24:12.878Z,7.88
2018-01-27T19:26:41.967Z,7.77
2018-01-27T19:29:11.100Z,7.82
2018-01-27T19:31:40.208Z,7.93
2018-01-27T19:34:10.210Z,8.04
2018-01-27T19:36:39.315Z,7.79
2018-01-27T19:39:08.404Z,7.90
2018-01-27T19:41:38.301Z,7.76
2018-01-27T19:44:07.418Z,7.86
2018-01-27T19:46:37.307Z,7.80
2018-01-27T19:49:06.419Z,7.80
2018-01-27T19:51:35.550Z,7.70
2018-01-27T19:54:04.682Z,7.69
2018-01-27T19:56:34.578Z,7.66
2018-01-27T19:59:03.675Z,7.61
2018-01-27T20:01:32.869Z,7.58
2018-01-27T20:04:01.962Z,7.62
2018-01-27T20:06:31.102Z,7.62
2018-01-27T20:09:00.206Z,7.64
2018-01-27T20:11:30.124Z,7.70
2018-01-27T20:13:59.242Z,7.69
2018-01-27T20:16:28.318Z,7.76
2018-01-27T20:18:57.455Z,7.84
2018-01-27T20:21:26.570Z,7.79
2018-01-27T20:23:55.693Z,7.91
2018-01-27T20:26:24.814Z,7.89
2018-01-27T20:28:53.942Z,7.89
2018-01-27T20:31:23.815Z,7.77
2018-01-27T20:33:52.922Z,7.76
2018-01-27T20:36:22.074Z,7.73
2018-01-27T20:38:51.175Z,7.78
2018-01-27T20:41:20.293Z,7.79
2018-01-27T20:43:49.387Z,7.77
2018-01-27T20:46:18.530Z,7.82
2018-01-27T20:48:47.625Z,7.78
2018-01-27T20:51:17.517Z,7.85
2018-01-27T20:53:47.381Z,7.87
2018-01-27T20:56:17.303Z,7.84
2018-01-27T20:58:46.401Z,7.91
2018-01-27T21:01:15.533Z,7.91
2018-01-27T21:03:45.425Z,7.92
2018-01-27T21:06:14.546Z,8.00
2018-01-27T21:08:44.618Z,8.01
2018-01-27T21:11:13.755Z,8.05
2018-01-27T21:13:43.630Z,8.08
2018-01-27T21:16:13.532Z,8.04
2018-01-27T21:18:42.685Z,8.07
2018-01-27T21:21:11.839Z,8.07
2018-01-27T21:23:40.987Z,8.12
2018-01-27T21:26:10.914Z,8.14
2018-01-27T21:28:40.835Z,8.16
2018-01-27T21:31:09.929Z,8.13
2018-01-27T21:33:39.037Z,8.09
2018-01-27T21:36:08.176Z,8.02
2018-01-27T21:38:38.077Z,8.00
2018-01-27T21:41:07.167Z,8.02
2018-01-27T21:43:36.279Z,7.98
2018-01-27T21:46:05.404Z,7.88
2018-01-27T21:48:34.513Z,7.84
2018-01-27T21:51:05.151Z,7.83
2018-01-27T21:53:34.281Z,7.85
2018-01-27T21:56:04.171Z,7.84
2018-01-27T21:58:34.057Z,7.92
2018-01-27T22:01:03.183Z,7.91
2018-01-27T22:03:32.264Z,7.87
2018-01-27T22:06:01.403Z,7.91
2018-01-27T22:08:30.544Z,7.88
2018-01-27T22:10:59.627Z,7.85
2018-01-27T22:13:28.792Z,7.88
2018-01-27T22:15:57.878Z,7.94
2018-01-27T22:18:27.001Z,7.96
2018-01-27T22:20:56.887Z,7.92
2018-01-27T22:23:26.025Z,7.95
2018-01-27T22:25:55.154Z,7.96
2018-01-27T22:28:25.056Z,7.95
2018-01-27T22:30:54.222Z,7.88
2018-01-27T22:33:23.340Z,7.93
2018-01-27T22:35:52.471Z,7.94
2018-01-27T22:38:21.567Z,7.99
2018-01-27T22:40:50.704Z,7.96
2018-01-27T22:43:19.800Z,7.93
2018-01-27T22:45:48.922Z,7.94
2018-01-27T22:48:18.790Z,7.90
2018-01-27T22:50:47.946Z,7.87
2018-01-27T22:53:17.039Z,7.89
2018-01-27T22:55:46.894Z,7.89
2018-01-27T22:58:16.039Z,7.88
2018-01-27T23:00:50.726Z,7.91
2018-01-27T23:03:19.814Z,7.91
2018-01-27T23:05:48.911Z,7.94
2018-01-27T23:08:18.068Z,7.91
2018-01-27T23:10:47.182Z,7.90
2018-01-27T23:13:16.290Z,7.95
2018-01-27T23:15:54.313Z,7.94
2018-01-27T23:18:24.210Z,7.90
2018-01-27T23:20:53.340Z,7.93
2018-01-27T23:23:22.478Z,7.92
2018-01-27T23:25:52.355Z,7.93
2018-01-27T23:28:21.462Z,7.96
2018-01-27T23:30:50.594Z,7.99
2018-01-27T23:33:19.692Z,7.99
2018-01-27T23:35:48.810Z,8.02
2018-01-27T23:38:17.926Z,7.97
2018-01-27T23:40:47.857Z,7.96
2018-01-27T23:43:17.722Z,7.98
2018-01-27T23:45:46.841Z,7.97
2018-01-27T23:48:16.719Z,7.98
2018-01-27T23:50:46.595Z,8.00
2018-01-27T23:53:15.702Z,8.01
2018-01-27T23:55:44.868Z,8.03
2018-01-27T23:58:14.736Z,8.08
